Argusville, North Dakota
Current Conditions -  °F | °C
As of 11:53 PM on Saturday 20 Dec 2014 (Local Time) from KFAR Reporting Station
Haze Haze  
Wind Chill: 22°   Ceiling: 700
Heat Index: 32°   Visibility: 5mi
Dew Point: 29°   Wind: 15mph
Humidity: 88%   Direction: 170°S
Pressure: 29.88"   Gusts: NA
Location:  47.05°N, 96.93°W
Report Text: KFAR 210553Z 17013KT 5SM BR OVC007 00/M02 A2988 RMK AO2 PK WND 17026/0502 SLP130 T00001017 10006 20000 400061011 58007
Loading
Personal Weather Stations






























Interactive Weather Map New forecast layout! Learn more

10-Day Weather Forecast

Advertisements
Track Severe Weather on mobile